Time;durP1;ratioP1;P1;durP2;ratioP2;P2;SDS_P1;SDS_P2;PMS_P1;PMS_P2;Temp;Humidity;BMP_temperature;BMP_pressure;BME280_temperature;BME280_humidity;BME280_pressure;Samples;Min_cycle;Max_cycle;Signal;HPM_P1;HPM_P2
2022/09/06 00:00:34;;;;;;;2.72;1.27;;;;;;;;;;5033461;28;20022;-64
2022/09/06 00:03:00;;;;;;;5.88;1.60;;;;;;;;;;5033418;28;20390;-64
2022/09/06 00:05:29;;;;;;;3.75;1.20;;;;;;;;;;5033209;28;20037;-64
2022/09/06 00:07:58;;;;;;;3.08;1.38;;;;;;;;;;5031939;28;20033;-64
2022/09/06 00:10:24;;;;;;;3.55;1.27;;;;;;;;;;5032694;28;20490;-65
2022/09/06 00:12:49;;;;;;;2.80;1.00;;;;;;;;;;5033189;28;20030;-65
2022/09/06 00:15:15;;;;;;;3.65;1.23;;;;;;;;;;5033270;28;20021;-63
2022/09/06 00:17:40;;;;;;;4.70;1.50;;;;;;;;;;5033006;28;20029;-64
2022/09/06 00:20:09;;;;;;;6.72;1.40;;;;;;;;;;5033040;28;20029;-64
2022/09/06 00:22:35;;;;;;;2.92;1.30;;;;;;;;;;5032801;28;20474;-62
2022/09/06 00:25:01;;;;;;;4.32;1.35;;;;;;;;;;5032766;28;20108;-64
2022/09/06 00:27:27;;;;;;;6.93;1.50;;;;;;;;;;5032804;28;20135;-64
2022/09/06 00:29:53;;;;;;;4.15;1.20;;;;;;;;;;5032924;28;20478;-63
2022/09/06 00:32:18;;;;;;;5.15;1.30;;;;;;;;;;5032742;28;20061;-65
2022/09/06 00:34:44;;;;;;;3.22;1.30;;;;;;;;;;5032754;28;20072;-62
2022/09/06 00:37:09;;;;;;;5.55;1.20;;;;;;;;;;5032658;28;20458;-64
2022/09/06 00:39:35;;;;;;;4.05;1.65;;;;;;;;;;5032856;28;20180;-64
2022/09/06 00:42:00;;;;;;;2.42;1.20;;;;;;;;;;5032988;28;20029;-64
2022/09/06 00:44:26;;;;;;;5.18;1.27;;;;;;;;;;5032598;28;20144;-65
2022/09/06 00:46:53;;;;;;;2.15;1.10;;;;;;;;;;5032718;28;20440;-66
2022/09/06 00:49:24;;;;;;;2.60;1.20;;;;;;;;;;5032814;28;20442;-64
2022/09/06 00:52:00;;;;;;;4.38;1.55;;;;;;;;;;5032767;28;20478;-64
2022/09/06 00:54:26;;;;;;;4.85;1.20;;;;;;;;;;5032622;28;20026;-62
2022/09/06 00:56:51;;;;;;;2.40;0.98;;;;;;;;;;5032538;28;20147;-63
2022/09/06 00:59:17;;;;;;;2.10;1.20;;;;;;;;;;5032677;28;20021;-64
2022/09/06 01:01:42;;;;;;;3.45;1.30;;;;;;;;;;5032573;28;20029;-64
2022/09/06 01:04:08;;;;;;;2.47;1.20;;;;;;;;;;5032276;28;20025;-65
2022/09/06 01:06:49;;;;;;;2.45;1.38;;;;;;;;;;5032585;28;20032;-64
2022/09/06 01:09:25;;;;;;;3.17;1.48;;;;;;;;;;5032621;28;20113;-65
2022/09/06 01:12:19;;;;;;;1.98;1.08;;;;;;;;;;5032597;28;20529;-64
2022/09/06 01:14:50;;;;;;;2.25;1.02;;;;;;;;;;5032549;28;20022;-64
2022/09/06 01:17:25;;;;;;;2.22;1.27;;;;;;;;;;5032469;28;20025;-64
2022/09/06 01:20:15;;;;;;;3.65;1.25;;;;;;;;;;5032321;28;20025;-64
2022/09/06 01:23:14;;;;;;;3.20;1.10;;;;;;;;;;5036297;28;20049;-65
2022/09/06 01:26:13;;;;;;;2.55;1.20;;;;;;;;;;5035799;28;20073;-64
2022/09/06 01:28:41;;;;;;;3.10;1.20;;;;;;;;;;5036373;28;20028;-64
2022/09/06 01:31:14;;;;;;;4.72;1.40;;;;;;;;;;5036417;28;20037;-64
2022/09/06 01:33:46;;;;;;;2.10;1.02;;;;;;;;;;5035799;28;20023;-64
2022/09/06 01:36:17;;;;;;;3.53;1.20;;;;;;;;;;5036292;28;20032;-64
2022/09/06 01:38:43;;;;;;;2.58;1.05;;;;;;;;;;5036296;28;20374;-65
2022/09/06 01:41:09;;;;;;;3.15;1.10;;;;;;;;;;5036116;28;20034;-64
2022/09/06 01:43:38;;;;;;;3.42;1.05;;;;;;;;;;5035773;28;20031;-68
2022/09/06 01:46:09;;;;;;;4.15;1.10;;;;;;;;;;5035887;28;20068;-65
2022/09/06 01:49:16;;;;;;;2.83;0.93;;;;;;;;;;5035751;28;20052;-64
2022/09/06 01:51:51;;;;;;;2.03;1.10;;;;;;;;;;4994134;28;20049;-64
2022/09/06 01:54:45;;;;;;;1.70;0.80;;;;;;;;;;4994489;28;20399;-63
2022/09/06 01:57:22;;;;;;;2.83;0.90;;;;;;;;;;4977476;28;20074;-64
2022/09/06 02:00:08;;;;;;;1.90;1.02;;;;;;;;;;4994164;28;20037;-62
2022/09/06 02:03:04;;;;;;;1.80;1.00;;;;;;;;;;4993286;28;20038;-63
2022/09/06 02:05:44;;;;;;;2.42;1.20;;;;;;;;;;4993954;28;20113;-65
2022/09/06 02:08:32;;;;;;;1.80;1.13;;;;;;;;;;4994107;28;20034;-65
2022/09/06 02:11:03;;;;;;;2.08;1.02;;;;;;;;;;4994073;28;20034;-64
2022/09/06 02:13:34;;;;;;;2.05;0.98;;;;;;;;;;4993934;28;20045;-64
2022/09/06 02:16:06;;;;;;;1.65;1.00;;;;;;;;;;4994100;28;20442;-64
2022/09/06 02:18:45;;;;;;;1.50;0.90;;;;;;;;;;4993504;28;20034;-64
2022/09/06 02:21:13;;;;;;;1.90;1.00;;;;;;;;;;4993838;28;20049;-63
2022/09/06 02:23:41;;;;;;;3.00;1.10;;;;;;;;;;4993574;28;20399;-64
2022/09/06 02:26:14;;;;;;;3.63;1.20;;;;;;;;;;4993493;28;20043;-64
2022/09/06 02:28:40;;;;;;;1.60;0.90;;;;;;;;;;5008677;28;20046;-64
2022/09/06 02:31:37;;;;;;;3.80;1.05;;;;;;;;;;5015272;28;20466;-64
2022/09/06 02:34:04;;;;;;;1.70;1.00;;;;;;;;;;5016987;28;20045;-64
2022/09/06 02:36:31;;;;;;;2.90;1.10;;;;;;;;;;5035105;28;20033;-64
2022/09/06 02:38:58;;;;;;;1.88;0.90;;;;;;;;;;5034995;28;20030;-64
2022/09/06 02:41:25;;;;;;;1.98;1.10;;;;;;;;;;5035003;28;20033;-64
2022/09/06 02:43:51;;;;;;;1.52;0.90;;;;;;;;;;5034531;28;20029;-64
2022/09/06 02:46:16;;;;;;;1.63;1.10;;;;;;;;;;5034677;28;20025;-65
2022/09/06 02:48:41;;;;;;;2.10;1.10;;;;;;;;;;5034858;28;20585;-64
2022/09/06 02:51:08;;;;;;;1.20;0.90;;;;;;;;;;5034760;28;20033;-62
2022/09/06 02:53:34;;;;;;;6.13;1.20;;;;;;;;;;5034511;28;20022;-62
2022/09/06 02:56:00;;;;;;;3.08;1.33;;;;;;;;;;5034662;28;20022;-62
2022/09/06 02:58:25;;;;;;;2.58;1.17;;;;;;;;;;5034454;28;20186;-64
2022/09/06 03:00:52;;;;;;;4.32;1.80;;;;;;;;;;5034326;28;20032;-65
2022/09/06 03:03:18;;;;;;;2.45;1.25;;;;;;;;;;5034556;28;20025;-64
2022/09/06 03:05:51;;;;;;;1.38;1.00;;;;;;;;;;5034367;28;20037;-64
2022/09/06 03:08:17;;;;;;;2.90;1.08;;;;;;;;;;5034474;28;20498;-64
2022/09/06 03:10:54;;;;;;;5.13;1.10;;;;;;;;;;5034403;28;20025;-64
2022/09/06 03:13:21;;;;;;;2.75;1.00;;;;;;;;;;5034271;28;20021;-64
2022/09/06 03:15:51;;;;;;;4.20;1.08;;;;;;;;;;5033954;28;20036;-64
2022/09/06 03:18:16;;;;;;;4.22;1.10;;;;;;;;;;5034260;28;20033;-64
2022/09/06 03:20:42;;;;;;;2.25;1.10;;;;;;;;;;5033982;28;20025;-64
2022/09/06 03:23:08;;;;;;;2.70;1.20;;;;;;;;;;5034070;28;20025;-63
2022/09/06 03:25:34;;;;;;;6.20;1.50;;;;;;;;;;5033556;28;20451;-65
2022/09/06 03:28:00;;;;;;;2.67;1.00;;;;;;;;;;5034112;28;20068;-64
2022/09/06 03:30:25;;;;;;;1.65;0.98;;;;;;;;;;5033771;28;20466;-67
2022/09/06 03:32:51;;;;;;;1.88;1.13;;;;;;;;;;5033755;28;20025;-64
2022/09/06 03:35:16;;;;;;;1.80;1.10;;;;;;;;;;5033929;28;20025;-64
2022/09/06 03:37:42;;;;;;;3.22;1.40;;;;;;;;;;5033492;28;20556;-64
2022/09/06 03:40:08;;;;;;;2.92;1.15;;;;;;;;;;5033637;28;20383;-64
2022/09/06 03:42:33;;;;;;;3.30;1.00;;;;;;;;;;5033640;28;20045;-67
2022/09/06 03:44:59;;;;;;;2.45;1.10;;;;;;;;;;5032556;28;20065;-64
2022/09/06 03:47:24;;;;;;;2.25;1.13;;;;;;;;;;5033742;28;20037;-64
2022/09/06 03:49:50;;;;;;;3.58;1.13;;;;;;;;;;5033636;28;20026;-64
2022/09/06 03:52:16;;;;;;;2.28;1.20;;;;;;;;;;5033513;28;20037;-64
2022/09/06 03:54:41;;;;;;;2.72;1.05;;;;;;;;;;5033553;28;20383;-64
2022/09/06 03:57:07;;;;;;;2.95;1.13;;;;;;;;;;5033470;28;20036;-64
2022/09/06 03:59:32;;;;;;;2.35;1.40;;;;;;;;;;5033271;28;20381;-64
2022/09/06 04:01:57;;;;;;;1.67;1.00;;;;;;;;;;5033358;28;20529;-64
2022/09/06 04:04:23;;;;;;;4.40;1.20;;;;;;;;;;5033041;28;20114;-65
2022/09/06 04:06:48;;;;;;;1.95;1.20;;;;;;;;;;5033134;28;20029;-64
2022/09/06 04:09:14;;;;;;;3.35;1.10;;;;;;;;;;5033006;28;20025;-64
2022/09/06 04:11:40;;;;;;;2.22;0.98;;;;;;;;;;5032980;28;20037;-64
2022/09/06 04:14:05;;;;;;;3.33;1.30;;;;;;;;;;5032563;28;20104;-65
2022/09/06 04:16:31;;;;;;;4.55;1.40;;;;;;;;;;5033046;28;20026;-64
2022/09/06 04:18:58;;;;;;;2.78;1.10;;;;;;;;;;5033025;28;20025;-64
2022/09/06 04:21:24;;;;;;;2.95;1.10;;;;;;;;;;5032910;28;20033;-64
2022/09/06 04:23:49;;;;;;;1.55;0.95;;;;;;;;;;5032724;28;20021;-64
2022/09/06 04:26:15;;;;;;;2.00;1.10;;;;;;;;;;5032739;28;20038;-64
2022/09/06 04:28:40;;;;;;;2.25;1.20;;;;;;;;;;5032841;28;20378;-67
2022/09/06 04:31:06;;;;;;;1.83;1.10;;;;;;;;;;5032875;28;20022;-64
2022/09/06 04:33:34;;;;;;;1.95;1.10;;;;;;;;;;5032639;28;20029;-64
2022/09/06 04:36:02;;;;;;;2.08;1.02;;;;;;;;;;5032810;28;20489;-64
2022/09/06 04:38:29;;;;;;;2.00;1.10;;;;;;;;;;5032830;28;20029;-64
2022/09/06 04:40:55;;;;;;;3.50;1.08;;;;;;;;;;5032966;28;20026;-64
2022/09/06 04:43:21;;;;;;;4.30;1.17;;;;;;;;;;5032649;28;20534;-65
2022/09/06 04:45:47;;;;;;;2.45;1.10;;;;;;;;;;5032495;28;20029;-62
2022/09/06 04:48:12;;;;;;;2.13;1.02;;;;;;;;;;5032809;28;20028;-64
2022/09/06 04:50:38;;;;;;;2.38;0.98;;;;;;;;;;5032722;28;20095;-62
2022/09/06 04:53:05;;;;;;;2.78;1.23;;;;;;;;;;5032469;28;20091;-62
2022/09/06 04:55:32;;;;;;;2.85;1.35;;;;;;;;;;5032228;28;20060;-62
2022/09/06 04:57:59;;;;;;;3.45;0.93;;;;;;;;;;5032358;28;20052;-62
2022/09/06 05:00:30;;;;;;;2.45;1.20;;;;;;;;;;5032318;28;20021;-62
2022/09/06 05:02:56;;;;;;;2.90;1.23;;;;;;;;;;5032385;28;20036;-62
2022/09/06 05:05:22;;;;;;;3.03;1.30;;;;;;;;;;5032494;28;20478;-62
2022/09/06 05:07:51;;;;;;;1.50;0.90;;;;;;;;;;5032463;28;20032;-64
2022/09/06 05:10:16;;;;;;;3.25;1.00;;;;;;;;;;5032498;28;20021;-64
2022/09/06 05:12:42;;;;;;;2.58;1.02;;;;;;;;;;5032282;28;20030;-66
2022/09/06 05:15:08;;;;;;;2.63;1.02;;;;;;;;;;5032530;28;20041;-63
2022/09/06 05:17:33;;;;;;;2.40;1.10;;;;;;;;;;5032250;28;20022;-62
2022/09/06 05:19:58;;;;;;;3.35;1.58;;;;;;;;;;5032420;28;20028;-63
2022/09/06 05:22:24;;;;;;;3.13;0.98;;;;;;;;;;5031972;28;20104;-65
2022/09/06 05:24:49;;;;;;;3.85;1.02;;;;;;;;;;5032147;28;20034;-64
2022/09/06 05:27:15;;;;;;;2.88;1.20;;;;;;;;;;5031827;28;20200;-64
2022/09/06 05:29:41;;;;;;;3.97;1.08;;;;;;;;;;5032034;28;20431;-65
2022/09/06 05:32:06;;;;;;;3.58;1.55;;;;;;;;;;5032439;28;20044;-66
2022/09/06 05:34:32;;;;;;;4.03;1.10;;;;;;;;;;5032175;28;20414;-65
2022/09/06 05:36:57;;;;;;;4.93;1.20;;;;;;;;;;5032478;28;20025;-64
2022/09/06 05:39:23;;;;;;;2.80;1.05;;;;;;;;;;5032057;28;20037;-64
2022/09/06 05:41:48;;;;;;;4.03;1.10;;;;;;;;;;5032163;28;20036;-64
2022/09/06 05:44:14;;;;;;;2.13;1.00;;;;;;;;;;5032087;28;20376;-64
2022/09/06 05:46:44;;;;;;;3.25;1.20;;;;;;;;;;5032165;28;20486;-64
2022/09/06 05:49:10;;;;;;;4.13;1.42;;;;;;;;;;5032087;28;20030;-64
2022/09/06 05:51:35;;;;;;;6.68;1.60;;;;;;;;;;5031798;28;20040;-65
2022/09/06 05:54:01;;;;;;;1.83;1.00;;;;;;;;;;5031894;28;20026;-64
2022/09/06 05:56:27;;;;;;;2.53;1.05;;;;;;;;;;5032141;28;20487;-64
2022/09/06 05:58:52;;;;;;;3.15;1.20;;;;;;;;;;5031963;28;20113;-64
2022/09/06 06:01:24;;;;;;;1.77;1.10;;;;;;;;;;5032122;28;20021;-64
2022/09/06 06:03:59;;;;;;;1.60;1.00;;;;;;;;;;5031777;28;20041;-64
2022/09/06 06:06:27;;;;;;;3.00;1.02;;;;;;;;;;5031906;28;20155;-65
2022/09/06 06:08:52;;;;;;;7.35;1.17;;;;;;;;;;5034251;28;20426;-64
2022/09/06 06:11:18;;;;;;;4.07;1.55;;;;;;;;;;5035266;28;20072;-64
2022/09/06 06:13:44;;;;;;;5.13;1.02;;;;;;;;;;5035349;28;20710;-65
2022/09/06 06:16:12;;;;;;;2.15;1.10;;;;;;;;;;5035577;28;20053;-65
2022/09/06 06:18:38;;;;;;;2.50;1.10;;;;;;;;;;5035486;28;20497;-64
2022/09/06 06:21:33;;;;;;;7.22;1.48;;;;;;;;;;5035405;28;20141;-64
2022/09/06 06:24:03;;;;;;;3.28;1.48;;;;;;;;;;5026000;28;20033;-64
2022/09/06 06:26:32;;;;;;;7.30;1.33;;;;;;;;;;5034790;28;20034;-63
2022/09/06 06:29:00;;;;;;;4.05;1.52;;;;;;;;;;5035110;28;20111;-64
2022/09/06 06:31:26;;;;;;;7.35;1.60;;;;;;;;;;5035104;28;20095;-64
2022/09/06 06:33:52;;;;;;;8.38;1.63;;;;;;;;;;5035117;28;20026;-64
2022/09/06 06:36:21;;;;;;;6.68;1.85;;;;;;;;;;5035083;28;20027;-64
2022/09/06 06:38:47;;;;;;;10.18;1.75;;;;;;;;;;5034751;28;20057;-64
2022/09/06 06:41:16;;;;;;;4.97;1.35;;;;;;;;;;5034485;28;20068;-64
2022/09/06 06:43:42;;;;;;;9.00;1.88;;;;;;;;;;5034569;28;20030;-64
2022/09/06 06:46:09;;;;;;;11.93;2.28;;;;;;;;;;5034735;28;20109;-64
2022/09/06 06:48:39;;;;;;;5.80;1.30;;;;;;;;;;5034885;28;20045;-64
2022/09/06 06:51:05;;;;;;;13.52;2.05;;;;;;;;;;5034783;28;20049;-70
2022/09/06 06:53:31;;;;;;;9.70;1.58;;;;;;;;;;5034226;28;20068;-65
2022/09/06 06:55:57;;;;;;;5.72;1.23;;;;;;;;;;5034745;28;20033;-64
2022/09/06 06:58:23;;;;;;;5.88;1.50;;;;;;;;;;5034550;28;20035;-62
2022/09/06 07:00:49;;;;;;;2.55;1.40;;;;;;;;;;5034448;28;20104;-66
2022/09/06 07:03:14;;;;;;;3.30;1.42;;;;;;;;;;5034027;28;20046;-62
2022/09/06 07:05:42;;;;;;;4.47;1.52;;;;;;;;;;5034171;28;20033;-62
2022/09/06 07:08:09;;;;;;;2.60;1.50;;;;;;;;;;5034153;28;20035;-63
2022/09/06 07:10:34;;;;;;;5.28;1.65;;;;;;;;;;5034477;28;20033;-64
2022/09/06 07:13:00;;;;;;;4.22;1.30;;;;;;;;;;5034293;28;20025;-63
2022/09/06 07:15:26;;;;;;;7.55;1.40;;;;;;;;;;5033890;28;20068;-63
2022/09/06 07:17:54;;;;;;;2.42;1.45;;;;;;;;;;5034064;28;20029;-63
2022/09/06 07:20:19;;;;;;;4.82;1.63;;;;;;;;;;5033314;28;20034;-64
2022/09/06 07:22:45;;;;;;;5.90;1.60;;;;;;;;;;5033689;28;20033;-63
2022/09/06 07:25:12;;;;;;;3.22;1.60;;;;;;;;;;5033486;28;20462;-63
2022/09/06 07:27:38;;;;;;;5.60;1.58;;;;;;;;;;5033816;28;20479;-65
2022/09/06 07:30:04;;;;;;;5.30;1.42;;;;;;;;;;5033900;28;20113;-64
2022/09/06 07:32:30;;;;;;;6.00;1.60;;;;;;;;;;5033834;28;20447;-63
2022/09/06 07:34:55;;;;;;;6.22;1.50;;;;;;;;;;5033728;28;20022;-63
2022/09/06 07:37:21;;;;;;;9.70;1.30;;;;;;;;;;5033552;28;20034;-63
2022/09/06 07:39:46;;;;;;;3.08;1.55;;;;;;;;;;5033656;28;20033;-63
2022/09/06 07:42:12;;;;;;;5.25;1.42;;;;;;;;;;5033687;28;20049;-63
2022/09/06 07:44:37;;;;;;;4.85;1.63;;;;;;;;;;5033573;28;20091;-66
2022/09/06 07:47:05;;;;;;;6.32;1.65;;;;;;;;;;5032710;28;20018;-64
2022/09/06 07:49:31;;;;;;;4.45;1.50;;;;;;;;;;5032894;28;20041;-63
2022/09/06 07:51:57;;;;;;;7.93;1.45;;;;;;;;;;5030229;28;20549;-63
2022/09/06 07:54:22;;;;;;;5.50;1.58;;;;;;;;;;5030750;28;20068;-65
2022/09/06 07:56:48;;;;;;;4.60;1.70;;;;;;;;;;5029527;28;20083;-63
2022/09/06 07:59:14;;;;;;;4.65;1.67;;;;;;;;;;5030645;28;20474;-63
2022/09/06 08:01:40;;;;;;;7.80;2.15;;;;;;;;;;5030182;28;20025;-63
2022/09/06 08:04:05;;;;;;;2.60;1.30;;;;;;;;;;5030856;28;20079;-64
2022/09/06 08:06:33;;;;;;;4.80;1.20;;;;;;;;;;5030339;28;20025;-63
2022/09/06 08:08:59;;;;;;;6.40;1.73;;;;;;;;;;5030080;28;20048;-63
2022/09/06 08:11:27;;;;;;;2.92;1.23;;;;;;;;;;5026826;28;20030;-63
2022/09/06 08:13:54;;;;;;;7.60;1.40;;;;;;;;;;5024776;28;20426;-63
2022/09/06 08:16:21;;;;;;;8.10;1.38;;;;;;;;;;5028313;28;20065;-63
2022/09/06 08:18:58;;;;;;;6.13;1.60;;;;;;;;;;5029201;28;20386;-63
2022/09/06 08:21:25;;;;;;;4.63;1.30;;;;;;;;;;5027962;28;20067;-64
2022/09/06 08:23:59;;;;;;;2.45;0.88;;;;;;;;;;5029114;28;20030;-63
2022/09/06 08:26:26;;;;;;;3.35;1.40;;;;;;;;;;5028510;28;20038;-64
2022/09/06 08:28:53;;;;;;;7.75;1.23;;;;;;;;;;5029192;28;20068;-64
2022/09/06 08:31:19;;;;;;;2.75;1.20;;;;;;;;;;5029361;28;20031;-63
2022/09/06 08:33:46;;;;;;;4.15;1.30;;;;;;;;;;5027939;28;20025;-65
2022/09/06 08:36:13;;;;;;;4.65;1.30;;;;;;;;;;5030203;28;20025;-63
2022/09/06 08:38:39;;;;;;;7.28;1.40;;;;;;;;;;5028663;28;20037;-63
2022/09/06 08:41:13;;;;;;;3.50;1.60;;;;;;;;;;5029518;28;20152;-63
2022/09/06 08:44:06;;;;;;;3.40;1.27;;;;;;;;;;5029268;28;20030;-63
2022/09/06 08:46:37;;;;;;;1.50;0.85;;;;;;;;;;5021153;28;20045;-63
2022/09/06 08:49:04;;;;;;;1.83;1.10;;;;;;;;;;5027850;28;20032;-63
2022/09/06 08:51:33;;;;;;;1.55;0.98;;;;;;;;;;5028098;28;20044;-63
2022/09/06 08:54:11;;;;;;;2.83;1.08;;;;;;;;;;5028662;28;20034;-65
2022/09/06 08:57:08;;;;;;;6.55;1.00;;;;;;;;;;5028756;28;20220;-63
2022/09/06 08:59:38;;;;;;;4.65;1.05;;;;;;;;;;4986615;28;20093;-64
2022/09/06 09:02:12;;;;;;;5.68;1.30;;;;;;;;;;4987278;28;20105;-66
2022/09/06 09:04:44;;;;;;;6.40;1.30;;;;;;;;;;4986714;28;20050;-69
2022/09/06 09:07:33;;;;;;;5.00;1.23;;;;;;;;;;4988037;28;20030;-64
2022/09/06 09:10:05;;;;;;;5.95;1.17;;;;;;;;;;4986232;28;20050;-63
2022/09/06 09:12:33;;;;;;;5.53;1.75;;;;;;;;;;4987198;28;20392;-63
2022/09/06 09:15:05;;;;;;;4.57;1.20;;;;;;;;;;4987842;28;20157;-65
2022/09/06 09:17:31;;;;;;;6.05;1.30;;;;;;;;;;4986744;28;20117;-64
2022/09/06 09:19:57;;;;;;;7.60;1.23;;;;;;;;;;4987611;28;20121;-64
2022/09/06 09:22:24;;;;;;;4.95;1.27;;;;;;;;;;4987317;28;20408;-63
2022/09/06 09:24:51;;;;;;;8.50;1.48;;;;;;;;;;4986897;28;20122;-68
2022/09/06 09:27:25;;;;;;;6.65;1.40;;;;;;;;;;4987352;28;20051;-64
2022/09/06 09:29:54;;;;;;;6.03;1.50;;;;;;;;;;4985733;28;20511;-63
2022/09/06 09:32:33;;;;;;;5.50;1.50;;;;;;;;;;4987176;28;20038;-63
2022/09/06 09:35:13;;;;;;;3.95;1.33;;;;;;;;;;5003988;28;20033;-64
2022/09/06 09:37:39;;;;;;;7.28;1.70;;;;;;;;;;5028725;28;20669;-64
2022/09/06 09:40:11;;;;;;;7.78;1.70;;;;;;;;;;5027645;28;20117;-62
2022/09/06 09:42:37;;;;;;;9.80;1.40;;;;;;;;;;5028722;28;20112;-64
2022/09/06 09:45:27;;;;;;;3.58;1.10;;;;;;;;;;5032189;28;20172;-63
2022/09/06 09:47:53;;;;;;;6.72;1.30;;;;;;;;;;5026090;28;20368;-63
2022/09/06 09:50:33;;;;;;;8.85;1.73;;;;;;;;;;5031797;28;20028;-63
2022/09/06 09:53:17;;;;;;;4.22;1.70;;;;;;;;;;5031963;28;20032;-63
2022/09/06 09:55:44;;;;;;;9.98;1.60;;;;;;;;;;5031847;28;20060;-63
2022/09/06 09:58:39;;;;;;;7.25;1.58;;;;;;;;;;5032017;28;20533;-64
2022/09/06 10:01:30;;;;;;;6.93;1.60;;;;;;;;;;5026999;28;20056;-63
2022/09/06 10:04:04;;;;;;;3.40;1.20;;;;;;;;;;5031258;28;20501;-64
2022/09/06 10:06:30;;;;;;;7.85;1.35;;;;;;;;;;5031097;28;20025;-63
2022/09/06 10:08:56;;;;;;;4.93;1.35;;;;;;;;;;5032503;28;20395;-63
2022/09/06 10:11:55;;;;;;;7.03;1.20;;;;;;;;;;5032179;28;20473;-63
2022/09/06 10:14:31;;;;;;;3.00;1.13;;;;;;;;;;5031675;28;20103;-62
2022/09/06 10:16:58;;;;;;;5.03;1.30;;;;;;;;;;5031669;28;20027;-63
2022/09/06 10:19:42;;;;;;;3.97;1.17;;;;;;;;;;5030298;28;20039;-63
2022/09/06 10:22:19;;;;;;;3.58;0.90;;;;;;;;;;5031245;28;20541;-63
2022/09/06 10:24:47;;;;;;;1.48;0.90;;;;;;;;;;5032045;28;20030;-63
2022/09/06 10:27:18;;;;;;;1.13;0.80;;;;;;;;;;5031730;28;20072;-63
2022/09/06 10:29:55;;;;;;;1.42;0.90;;;;;;;;;;5030916;28;20026;-63
2022/09/06 10:32:41;;;;;;;2.63;1.00;;;;;;;;;;5031420;28;20021;-63
2022/09/06 10:35:23;;;;;;;1.52;0.82;;;;;;;;;;5030588;28;20419;-63
2022/09/06 10:38:13;;;;;;;3.08;0.98;;;;;;;;;;5031797;28;20036;-65
2022/09/06 10:41:04;;;;;;;1.75;0.70;;;;;;;;;;5031056;28;20030;-63
2022/09/06 10:43:48;;;;;;;1.10;0.80;;;;;;;;;;5014702;28;20113;-63
2022/09/06 10:46:15;;;;;;;1.10;0.73;;;;;;;;;;5014571;28;20160;-63
2022/09/06 10:48:47;;;;;;;3.60;0.80;;;;;;;;;;5014591;28;20025;-63
2022/09/06 10:51:32;;;;;;;1.65;0.90;;;;;;;;;;5014959;28;20021;-62
2022/09/06 10:54:05;;;;;;;5.03;1.20;;;;;;;;;;5015480;28;20041;-62
2022/09/06 10:56:54;;;;;;;5.43;1.30;;;;;;;;;;5029393;28;20057;-63
2022/09/06 10:59:32;;;;;;;3.22;1.30;;;;;;;;;;5031236;28;20037;-63
2022/09/06 11:02:16;;;;;;;3.22;0.93;;;;;;;;;;5031314;28;20508;-63
2022/09/06 11:04:45;;;;;;;2.20;0.88;;;;;;;;;;5030259;28;20107;-63
2022/09/06 11:07:50;;;;;;;3.25;0.85;;;;;;;;;;5030363;28;20030;-64
2022/09/06 11:10:33;;;;;;;1.92;0.93;;;;;;;;;;4989230;28;20129;-62
2022/09/06 11:13:10;;;;;;;2.15;0.77;;;;;;;;;;4987590;28;20106;-63
2022/09/06 11:15:51;;;;;;;4.93;0.80;;;;;;;;;;4988507;28;20030;-65
2022/09/06 11:18:31;;;;;;;2.83;0.63;;;;;;;;;;4988767;28;20038;-63
2022/09/06 11:21:09;;;;;;;4.60;0.80;;;;;;;;;;4987790;28;20030;-63
2022/09/06 11:23:52;;;;;;;3.53;0.90;;;;;;;;;;4987634;28;20030;-62
2022/09/06 11:26:33;;;;;;;1.45;0.80;;;;;;;;;;4987978;28;20046;-64
2022/09/06 11:29:03;;;;;;;1.13;0.80;;;;;;;;;;4989008;28;20494;-63
2022/09/06 11:31:33;;;;;;;3.80;1.40;;;;;;;;;;4987883;28;20117;-63
2022/09/06 11:34:06;;;;;;;3.25;1.40;;;;;;;;;;4987368;28;20085;-63
2022/09/06 11:36:37;;;;;;;1.58;0.90;;;;;;;;;;4988652;28;20431;-63
2022/09/06 11:39:05;;;;;;;2.17;0.80;;;;;;;;;;4989128;28;20037;-67
2022/09/06 11:41:34;;;;;;;1.95;0.80;;;;;;;;;;4988382;28;20026;-63
2022/09/06 11:44:01;;;;;;;1.95;0.95;;;;;;;;;;5004838;28;20049;-63
2022/09/06 11:46:32;;;;;;;3.50;1.00;;;;;;;;;;5029295;28;20546;-63
2022/09/06 11:49:03;;;;;;;6.68;1.00;;;;;;;;;;5030126;28;20486;-63
2022/09/06 11:51:33;;;;;;;1.88;0.90;;;;;;;;;;5029769;28;20029;-67
2022/09/06 11:53:58;;;;;;;;;;;;;;;;;;5030130;28;20029;-63
2022/09/06 11:56:35;;;;;;;2.08;0.73;;;;;;;;;;5029636;28;19917;-63
2022/09/06 11:59:10;;;;;;;1.58;0.80;;;;;;;;;;5030290;28;20044;-63
2022/09/06 12:01:37;;;;;;;3.25;0.80;;;;;;;;;;5030457;28;20049;-62
2022/09/06 12:04:04;;;;;;;4.25;1.20;;;;;;;;;;5030043;28;20095;-62
2022/09/06 12:06:38;;;;;;;3.80;0.93;;;;;;;;;;5028867;28;20049;-63
2022/09/06 12:09:27;;;;;;;4.63;1.10;;;;;;;;;;5029972;28;20101;-63
2022/09/06 12:11:55;;;;;;;3.33;0.90;;;;;;;;;;5029334;28;20369;-63
2022/09/06 12:14:41;;;;;;;2.90;0.80;;;;;;;;;;5029819;28;20044;-63
2022/09/06 12:17:07;;;;;;;2.05;0.60;;;;;;;;;;5029147;28;20018;-63
2022/09/06 12:19:51;;;;;;;1.90;0.70;;;;;;;;;;5028915;28;20029;-63
2022/09/06 12:22:28;;;;;;;1.10;0.75;;;;;;;;;;5029352;28;20048;-63
2022/09/06 12:24:58;;;;;;;1.85;0.80;;;;;;;;;;5029908;28;20441;-64
2022/09/06 12:27:38;;;;;;;3.10;0.82;;;;;;;;;;5028161;28;20458;-65
2022/09/06 12:30:07;;;;;;;2.38;0.68;;;;;;;;;;5029239;28;20025;-63
2022/09/06 12:32:39;;;;;;;7.93;0.93;;;;;;;;;;5028466;28;20052;-63
2022/09/06 12:35:13;;;;;;;6.90;1.10;;;;;;;;;;5029728;28;20043;-63
2022/09/06 12:37:54;;;;;;;2.47;0.90;;;;;;;;;;5028961;28;20064;-65
2022/09/06 12:40:21;;;;;;;3.53;0.90;;;;;;;;;;5028361;28;20025;-62
2022/09/06 12:42:49;;;;;;;2.92;0.90;;;;;;;;;;5029351;28;20061;-62
2022/09/06 12:45:18;;;;;;;5.57;0.77;;;;;;;;;;5029426;28;20116;-63
2022/09/06 12:47:44;;;;;;;5.78;1.13;;;;;;;;;;5029526;28;20032;-63
2022/09/06 12:50:15;;;;;;;3.30;0.80;;;;;;;;;;5028436;28;20057;-63
2022/09/06 12:52:52;;;;;;;2.05;0.88;;;;;;;;;;5028361;28;20087;-63
2022/09/06 12:55:31;;;;;;;2.08;0.93;;;;;;;;;;5028833;28;20029;-63
2022/09/06 12:58:00;;;;;;;2.97;1.00;;;;;;;;;;5028070;28;20041;-63
2022/09/06 13:00:32;;;;;;;5.47;1.00;;;;;;;;;;5028106;28;20036;-62
2022/09/06 13:03:04;;;;;;;2.92;1.20;;;;;;;;;;5028603;28;20104;-63
2022/09/06 13:05:30;;;;;;;3.05;0.70;;;;;;;;;;5028331;28;20037;-63
2022/09/06 13:07:59;;;;;;;3.92;0.98;;;;;;;;;;5028730;28;20025;-63
2022/09/06 13:10:26;;;;;;;1.50;0.75;;;;;;;;;;5027820;28;20175;-64
2022/09/06 13:12:53;;;;;;;3.92;0.95;;;;;;;;;;5028482;28;20025;-64
2022/09/06 13:15:27;;;;;;;4.00;1.05;;;;;;;;;;5028152;28;20022;-65
2022/09/06 13:18:21;;;;;;;3.67;0.95;;;;;;;;;;5031977;28;20502;-64
2022/09/06 13:21:04;;;;;;;4.43;1.02;;;;;;;;;;5028290;28;20376;-65
2022/09/06 13:23:42;;;;;;;6.93;0.90;;;;;;;;;;5032484;28;20104;-64
2022/09/06 13:26:08;;;;;;;3.72;1.20;;;;;;;;;;5032443;28;20124;-64
2022/09/06 13:28:34;;;;;;;2.90;0.80;;;;;;;;;;5032999;28;20491;-64
2022/09/06 13:31:04;;;;;;;2.28;0.70;;;;;;;;;;5032920;28;20034;-65
2022/09/06 13:33:30;;;;;;;3.40;0.98;;;;;;;;;;5032617;28;20037;-64
2022/09/06 13:36:05;;;;;;;2.17;0.75;;;;;;;;;;5033108;28;20029;-65
2022/09/06 13:38:38;;;;;;;2.17;0.93;;;;;;;;;;5032386;28;20501;-64
2022/09/06 13:41:06;;;;;;;3.10;1.00;;;;;;;;;;5031972;28;20394;-64
2022/09/06 13:43:42;;;;;;;3.05;1.00;;;;;;;;;;5031325;28;20057;-64
2022/09/06 13:46:10;;;;;;;1.98;0.85;;;;;;;;;;5032534;28;20036;-65
2022/09/06 13:48:38;;;;;;;3.17;0.85;;;;;;;;;;5032262;28;20477;-66
2022/09/06 13:51:05;;;;;;;3.97;0.75;;;;;;;;;;5032137;28;20030;-65
2022/09/06 13:53:31;;;;;;;4.68;0.90;;;;;;;;;;5031800;28;21134;-65
2022/09/06 13:55:57;;;;;;;6.03;0.90;;;;;;;;;;5032048;28;20095;-64
2022/09/06 13:58:23;;;;;;;5.78;0.70;;;;;;;;;;5032206;28;20030;-64
2022/09/06 14:00:49;;;;;;;1.20;0.75;;;;;;;;;;5032127;28;20102;-64
2022/09/06 14:03:29;;;;;;;10.45;1.13;;;;;;;;;;5031697;28;20036;-65
2022/09/06 14:05:55;;;;;;;1.80;0.90;;;;;;;;;;5031995;28;20063;-64
2022/09/06 14:08:21;;;;;;;4.78;1.00;;;;;;;;;;5031337;28;20033;-64
2022/09/06 14:10:47;;;;;;;9.60;1.00;;;;;;;;;;5031674;28;20101;-65
2022/09/06 14:13:14;;;;;;;6.95;1.00;;;;;;;;;;5031446;28;20029;-64
2022/09/06 14:15:40;;;;;;;5.25;0.90;;;;;;;;;;5032558;28;20517;-65
2022/09/06 14:18:05;;;;;;;4.30;0.50;;;;;;;;;;5031517;28;20038;-65
2022/09/06 14:20:31;;;;;;;4.38;0.90;;;;;;;;;;5032664;28;20047;-63
2022/09/06 14:22:57;;;;;;;5.03;1.00;;;;;;;;;;5031139;28;20025;-64
2022/09/06 14:25:22;;;;;;;1.80;0.90;;;;;;;;;;5031103;28;20049;-64
2022/09/06 14:27:48;;;;;;;1.90;0.70;;;;;;;;;;5031626;28;20038;-63
2022/09/06 14:30:13;;;;;;;5.60;0.70;;;;;;;;;;5031406;28;20040;-64
2022/09/06 14:32:39;;;;;;;2.53;0.73;;;;;;;;;;5032444;28;20120;-64
2022/09/06 14:35:05;;;;;;;2.08;0.80;;;;;;;;;;5031725;28;20022;-66
2022/09/06 14:37:31;;;;;;;4.10;1.08;;;;;;;;;;5031788;28;20100;-64
2022/09/06 14:39:57;;;;;;;2.85;0.80;;;;;;;;;;5031333;28;20554;-64
2022/09/06 14:42:23;;;;;;;5.20;0.80;;;;;;;;;;5031080;28;20109;-65
2022/09/06 14:44:49;;;;;;;4.47;0.90;;;;;;;;;;5032036;28;20029;-64
2022/09/06 14:47:15;;;;;;;5.43;1.00;;;;;;;;;;5031147;28;20033;-66
2022/09/06 14:49:41;;;;;;;3.67;1.05;;;;;;;;;;5031962;28;20660;-64
2022/09/06 14:52:06;;;;;;;6.90;0.90;;;;;;;;;;5030518;28;20052;-64
2022/09/06 14:54:32;;;;;;;5.15;1.00;;;;;;;;;;5031548;28;20021;-66
2022/09/06 14:56:58;;;;;;;2.88;1.05;;;;;;;;;;5030574;28;20091;-67
2022/09/06 14:59:23;;;;;;;4.38;1.20;;;;;;;;;;5031619;28;20382;-64
2022/09/06 15:01:48;;;;;;;3.03;1.20;;;;;;;;;;5031791;28;20424;-64